createdAt,value
2023-12-01T00:00:26.192Z,70.00
2023-12-01T00:02:52.768Z,70.18
2023-12-01T00:05:19.294Z,69.91
2023-12-01T00:07:45.808Z,70.24
2023-12-01T00:10:13.231Z,70.42
2023-12-01T00:12:39.885Z,69.32
2023-12-01T00:15:07.050Z,68.98
2023-12-01T00:17:33.994Z,69.04
2023-12-01T00:20:00.875Z,68.95
2023-12-01T00:22:27.440Z,68.08
2023-12-01T00:24:54.011Z,67.70
2023-12-01T00:27:20.588Z,69.01
2023-12-01T00:29:47.055Z,69.43
2023-12-01T00:32:13.639Z,69.95
2023-12-01T00:34:40.139Z,69.08
2023-12-01T00:37:06.759Z,69.08
2023-12-01T00:39:33.291Z,69.26
2023-12-01T00:41:59.828Z,70.67
2023-12-01T00:44:26.498Z,70.39
2023-12-01T00:46:52.999Z,71.06
2023-12-01T00:49:19.599Z,71.02
2023-12-01T00:51:47.041Z,71.21
2023-12-01T00:54:13.640Z,70.31
2023-12-01T00:56:40.166Z,70.55
2023-12-01T00:59:06.711Z,70.27
2023-12-01T01:01:34.612Z,69.49
2023-12-01T01:04:01.194Z,69.14
2023-12-01T01:06:27.806Z,70.29
2023-12-01T01:08:54.273Z,70.85
2023-12-01T01:11:23.282Z,71.12
2023-12-01T01:13:50.116Z,71.48
2023-12-01T01:16:16.818Z,71.64
2023-12-01T01:18:43.441Z,71.51
2023-12-01T01:21:09.941Z,71.60
2023-12-01T01:23:36.481Z,71.34
2023-12-01T01:26:04.072Z,70.73
2023-12-01T01:28:30.561Z,71.03
2023-12-01T01:30:58.848Z,71.36
2023-12-01T01:33:25.474Z,71.51
2023-12-01T01:35:51.970Z,71.24
2023-12-01T01:38:18.446Z,71.41
2023-12-01T01:40:44.961Z,71.05
2023-12-01T01:43:20.807Z,71.04
2023-12-01T01:45:47.415Z,70.44
2023-12-01T01:48:14.002Z,70.53
2023-12-01T01:50:40.545Z,71.15
2023-12-01T01:53:07.094Z,70.81
2023-12-01T01:55:33.652Z,70.12
2023-12-01T01:58:00.204Z,70.60
2023-12-01T02:00:26.788Z,70.12
2023-12-01T02:02:53.357Z,69.94
2023-12-01T02:05:19.875Z,69.69
2023-12-01T02:07:46.534Z,69.91
2023-12-01T02:10:16.980Z,70.43
2023-12-01T02:12:46.022Z,70.42
2023-12-01T02:15:13.068Z,70.50
2023-12-01T02:17:39.947Z,70.79
2023-12-01T02:20:07.780Z,70.70
2023-12-01T02:22:34.924Z,70.14
2023-12-01T02:25:01.511Z,69.56
2023-12-01T02:27:28.135Z,69.65
2023-12-01T02:29:54.659Z,69.17
2023-12-01T02:32:21.189Z,69.44
2023-12-01T02:34:47.709Z,69.29
2023-12-01T02:37:14.466Z,69.53
2023-12-01T02:39:40.980Z,70.00
2023-12-01T02:42:07.526Z,70.27
2023-12-01T02:44:33.978Z,70.31
2023-12-01T02:47:00.483Z,70.02
2023-12-01T02:49:27.067Z,70.55
2023-12-01T02:51:53.574Z,70.18
2023-12-01T02:54:20.054Z,69.46
2023-12-01T02:56:46.539Z,69.28
2023-12-01T02:59:13.021Z,69.11
2023-12-01T03:01:39.633Z,69.81
2023-12-01T03:04:06.310Z,70.43
2023-12-01T03:06:32.832Z,69.92
2023-12-01T03:08:59.308Z,69.74
2023-12-01T03:11:25.814Z,70.44
2023-12-01T03:13:52.314Z,70.23
2023-12-01T03:16:18.879Z,70.17
2023-12-01T03:18:45.555Z,70.37
2023-12-01T03:21:14.450Z,70.21
2023-12-01T03:23:42.207Z,70.34
2023-12-01T03:26:11.356Z,69.52
2023-12-01T03:28:37.859Z,69.33
2023-12-01T03:31:04.857Z,69.50
2023-12-01T03:33:32.093Z,69.00
2023-12-01T03:35:58.758Z,69.61
2023-12-01T03:38:25.223Z,68.96
2023-12-01T03:40:51.721Z,68.95
2023-12-01T03:43:18.308Z,68.54
2023-12-01T03:45:44.915Z,67.96
2023-12-01T03:48:11.499Z,67.95
2023-12-01T03:50:38.104Z,67.85
2023-12-01T03:53:04.619Z,67.64
2023-12-01T03:55:31.194Z,67.67
2023-12-01T03:57:57.801Z,67.73
2023-12-01T04:00:24.348Z,68.06
2023-12-01T04:02:51.691Z,68.03
2023-12-01T04:05:21.927Z,68.09
2023-12-01T04:07:56.031Z,68.22
2023-12-01T04:10:28.861Z,67.69
2023-12-01T04:12:56.422Z,68.86
2023-12-01T04:15:26.658Z,68.61
2023-12-01T04:17:53.912Z,68.85
2023-12-01T04:20:26.507Z,69.21
2023-12-01T04:22:58.642Z,68.74
2023-12-01T04:25:25.746Z,69.08
2023-12-01T04:27:53.475Z,68.36
2023-12-01T04:30:21.925Z,68.25
2023-12-01T04:32:54.972Z,67.86
2023-12-01T04:35:23.510Z,67.69
2023-12-01T04:37:50.482Z,67.75
2023-12-01T04:40:17.337Z,66.93
2023-12-01T04:42:45.500Z,68.00
2023-12-01T04:45:13.822Z,69.16
2023-12-01T04:47:44.283Z,68.47
2023-12-01T04:50:15.416Z,68.92
2023-12-01T04:52:47.091Z,68.69
2023-12-01T04:55:16.371Z,69.00
2023-12-01T04:57:44.210Z,68.56
2023-12-01T05:00:22.141Z,68.97
2023-12-01T05:02:59.866Z,68.68
2023-12-01T05:05:31.297Z,68.65
2023-12-01T05:08:01.031Z,69.08
2023-12-01T05:10:29.662Z,67.81
2023-12-01T05:12:58.637Z,67.72
2023-12-01T05:15:27.155Z,67.24
2023-12-01T05:17:56.080Z,67.77
2023-12-01T05:20:25.201Z,67.74
2023-12-01T05:22:53.600Z,67.54
2023-12-01T05:25:21.740Z,67.40
2023-12-01T05:27:56.158Z,67.43
2023-12-01T05:30:25.348Z,67.21
2023-12-01T05:32:53.367Z,67.75
2023-12-01T05:35:21.150Z,67.20
2023-12-01T05:37:50.128Z,68.29
2023-12-01T05:40:22.697Z,67.94
2023-12-01T05:42:51.033Z,67.16
2023-12-01T05:45:18.105Z,67.04
2023-12-01T05:47:46.319Z,67.42
2023-12-01T05:50:14.604Z,67.21
2023-12-01T05:52:42.586Z,66.99
2023-12-01T05:55:19.099Z,67.96
2023-12-01T05:57:52.012Z,68.77
2023-12-01T06:00:30.867Z,68.04
2023-12-01T06:03:02.807Z,69.01
2023-12-01T06:05:29.921Z,68.85
2023-12-01T06:07:59.333Z,69.04
2023-12-01T06:10:27.974Z,68.52
2023-12-01T06:12:55.256Z,68.59
2023-12-01T06:15:22.720Z,68.66
2023-12-01T06:17:53.390Z,68.48
2023-12-01T06:20:23.761Z,68.57
2023-12-01T06:22:51.170Z,69.88
2023-12-01T06:25:19.962Z,70.80
2023-12-01T06:27:47.893Z,69.64
2023-12-01T06:30:16.370Z,68.74
2023-12-01T06:32:47.341Z,68.62
2023-12-01T06:35:18.801Z,68.25
2023-12-01T06:37:48.632Z,68.23
2023-12-01T06:40:18.047Z,68.59
2023-12-01T06:42:44.528Z,68.31
2023-12-01T06:45:12.109Z,69.02
2023-12-01T06:47:42.057Z,68.02
2023-12-01T06:50:12.991Z,67.66
2023-12-01T06:52:39.909Z,67.44
2023-12-01T06:55:08.451Z,68.07
2023-12-01T06:57:42.252Z,67.64
2023-12-01T07:00:31.517Z,67.88
2023-12-01T07:03:06.948Z,67.83
2023-12-01T07:05:34.566Z,68.17
2023-12-01T07:08:02.205Z,67.73
2023-12-01T07:10:29.582Z,67.30
2023-12-01T07:12:56.871Z,67.31
2023-12-01T07:15:25.835Z,67.71
2023-12-01T07:17:54.276Z,67.96
2023-12-01T07:20:21.568Z,67.60
2023-12-01T07:22:49.449Z,67.51
2023-12-01T07:25:23.562Z,67.06
2023-12-01T07:27:53.131Z,67.20
2023-12-01T07:30:19.693Z,67.04
2023-12-01T07:32:47.336Z,67.85
2023-12-01T07:35:14.814Z,67.95
2023-12-01T07:37:43.679Z,68.94
2023-12-01T07:40:14.586Z,69.72
2023-12-01T07:42:41.386Z,69.91
2023-12-01T07:45:10.302Z,69.33
2023-12-01T07:47:38.040Z,69.25
2023-12-01T07:50:05.753Z,68.95
2023-12-01T07:52:33.317Z,69.63
2023-12-01T07:55:00.799Z,69.20
2023-12-01T07:57:27.443Z,68.90
2023-12-01T07:59:53.907Z,68.24
2023-12-01T08:02:20.613Z,68.03
2023-12-01T08:04:47.281Z,68.86
2023-12-01T08:07:15.470Z,68.67
2023-12-01T08:09:43.724Z,68.25
2023-12-01T08:12:10.368Z,68.28
2023-12-01T08:14:36.868Z,67.91
2023-12-01T08:17:03.643Z,67.50
2023-12-01T08:19:30.602Z,67.93
2023-12-01T08:21:57.176Z,67.53
2023-12-01T08:24:32.129Z,67.67
2023-12-01T08:27:01.250Z,67.99
2023-12-01T08:29:28.492Z,67.83
2023-12-01T08:31:55.773Z,68.98
2023-12-01T08:34:23.734Z,69.36
2023-12-01T08:36:50.747Z,70.39
2023-12-01T08:39:17.318Z,70.43
2023-12-01T08:41:43.777Z,70.80
2023-12-01T08:44:10.265Z,71.64
2023-12-01T08:46:37.014Z,72.03
2023-12-01T08:49:03.555Z,71.70
2023-12-01T08:51:30.100Z,71.86
2023-12-01T08:53:56.660Z,70.92
2023-12-01T08:56:23.183Z,70.50
2023-12-01T08:58:50.192Z,70.68
2023-12-01T09:01:17.623Z,70.34
2023-12-01T09:03:44.676Z,69.82
2023-12-01T09:06:11.574Z,69.47
2023-12-01T09:08:38.230Z,68.93
2023-12-01T09:11:04.929Z,68.31
2023-12-01T09:13:33.590Z,68.96
2023-12-01T09:16:01.158Z,69.10
2023-12-01T09:18:29.040Z,69.63
2023-12-01T09:20:55.893Z,70.26
2023-12-01T09:23:22.695Z,69.84
2023-12-01T09:25:49.642Z,69.47
2023-12-01T09:28:16.218Z,69.10
2023-12-01T09:30:42.721Z,69.17
2023-12-01T09:33:09.431Z,69.64
2023-12-01T09:35:54.991Z,69.21
2023-12-01T09:38:22.579Z,68.76
2023-12-01T09:40:49.080Z,68.09
2023-12-01T09:43:19.740Z,67.59
2023-12-01T09:45:46.551Z,67.95
2023-12-01T09:48:15.382Z,68.05
2023-12-01T09:50:42.119Z,68.80
2023-12-01T09:53:08.692Z,68.33
2023-12-01T09:55:36.288Z,68.14
2023-12-01T09:58:03.286Z,69.08
2023-12-01T10:00:30.105Z,69.00
2023-12-01T10:02:57.101Z,69.25
2023-12-01T10:05:23.927Z,70.00
2023-12-01T10:07:51.813Z,69.50
2023-12-01T10:10:21.436Z,69.37
2023-12-01T10:12:55.236Z,68.87
2023-12-01T10:15:22.248Z,69.34
2023-12-01T10:17:48.836Z,69.43
2023-12-01T10:20:19.290Z,68.65
2023-12-01T10:22:48.596Z,69.70
2023-12-01T10:25:15.232Z,72.03
2023-12-01T10:27:41.736Z,72.16
2023-12-01T10:30:15.904Z,72.11
2023-12-01T10:32:43.370Z,71.86
2023-12-01T10:35:09.933Z,71.50
2023-12-01T10:37:38.273Z,69.89
2023-12-01T10:40:09.464Z,70.13
2023-12-01T10:42:36.927Z,69.23
2023-12-01T10:45:04.736Z,69.18
2023-12-01T10:47:32.148Z,70.39
2023-12-01T10:49:59.339Z,69.47
2023-12-01T10:52:26.575Z,69.27
2023-12-01T10:54:53.634Z,68.37
2023-12-01T10:57:39.362Z,68.86
2023-12-01T11:00:26.485Z,67.52
2023-12-01T11:02:53.721Z,67.55
2023-12-01T11:05:20.826Z,68.53
2023-12-01T11:08:09.610Z,69.45
2023-12-01T11:10:50.170Z,70.41
2023-12-01T11:13:59.148Z,69.75
2023-12-01T11:16:28.273Z,69.55
2023-12-01T11:18:57.897Z,69.45
2023-12-01T11:21:24.577Z,69.42
2023-12-01T11:23:51.856Z,69.28
2023-12-01T11:26:18.492Z,69.43
2023-12-01T11:28:48.059Z,69.18
2023-12-01T11:31:21.784Z,69.59
2023-12-01T11:33:53.760Z,70.47
2023-12-01T11:36:23.706Z,70.42
2023-12-01T11:39:14.473Z,70.46
2023-12-01T11:41:45.349Z,69.72
2023-12-01T11:44:36.482Z,70.87
2023-12-01T11:47:07.929Z,72.05
2023-12-01T11:49:35.585Z,72.19
2023-12-01T11:52:04.266Z,72.59
2023-12-01T11:54:37.926Z,73.39
2023-12-01T11:57:12.126Z,73.91
2023-12-01T11:59:38.703Z,73.55
2023-12-01T12:02:06.220Z,73.29
2023-12-01T12:04:38.937Z,73.47
2023-12-01T12:07:06.388Z,73.66
2023-12-01T12:09:34.044Z,73.31
2023-12-01T12:12:02.313Z,73.64
2023-12-01T12:14:30.656Z,73.09
2023-12-01T12:16:58.890Z,73.41
2023-12-01T12:19:27.152Z,73.38
2023-12-01T12:21:54.868Z,72.70
2023-12-01T12:24:22.299Z,72.98
2023-12-01T12:26:57.750Z,73.91
2023-12-01T12:29:25.775Z,73.29
2023-12-01T12:31:53.103Z,73.00
2023-12-01T12:34:21.810Z,72.25
2023-12-01T12:36:51.821Z,71.90
2023-12-01T12:39:18.953Z,72.28
2023-12-01T12:42:00.509Z,71.77
2023-12-01T12:44:32.694Z,72.19
2023-12-01T12:47:06.769Z,72.61
2023-12-01T12:49:34.664Z,72.04
2023-12-01T12:52:02.608Z,71.89
2023-12-01T12:54:29.533Z,71.72
2023-12-01T12:56:56.202Z,71.34
2023-12-01T12:59:24.166Z,72.13
2023-12-01T13:01:51.635Z,71.95
2023-12-01T13:04:18.259Z,73.06
2023-12-01T13:06:49.136Z,72.07
2023-12-01T13:09:17.931Z,71.93
2023-12-01T13:11:45.433Z,72.40
2023-12-01T13:14:14.306Z,71.95
2023-12-01T13:16:51.909Z,71.69
2023-12-01T13:19:23.106Z,71.85
2023-12-01T13:21:53.132Z,71.71
2023-12-01T13:24:22.517Z,71.54
2023-12-01T13:26:49.442Z,71.79
2023-12-01T13:29:16.069Z,72.00
2023-12-01T13:31:42.827Z,72.25
2023-12-01T13:34:09.617Z,72.94
2023-12-01T13:36:36.340Z,73.05
2023-12-01T13:39:04.202Z,72.76
2023-12-01T13:41:31.765Z,73.07
2023-12-01T13:43:58.319Z,73.35
2023-12-01T13:46:24.945Z,73.24
2023-12-01T13:48:51.681Z,72.72
2023-12-01T13:51:18.404Z,72.50
2023-12-01T13:53:45.080Z,71.79
2023-12-01T13:56:12.703Z,71.96
2023-12-01T13:58:44.830Z,72.56
2023-12-01T14:01:14.305Z,72.42
2023-12-01T14:03:40.988Z,73.46
2023-12-01T14:06:07.953Z,73.69
2023-12-01T14:08:34.878Z,72.77
2023-12-01T14:11:01.985Z,73.34
2023-12-01T14:13:28.468Z,72.91
2023-12-01T14:15:55.153Z,72.49
2023-12-01T14:18:22.791Z,72.86
2023-12-01T14:20:49.821Z,72.73
2023-12-01T14:23:16.462Z,73.00
2023-12-01T14:25:43.023Z,72.72
2023-12-01T14:28:09.512Z,73.45
2023-12-01T14:30:36.019Z,73.05
2023-12-01T14:33:02.665Z,73.02
2023-12-01T14:35:29.412Z,73.04
2023-12-01T14:37:55.963Z,72.84
2023-12-01T14:40:22.748Z,72.83
2023-12-01T14:42:49.234Z,73.17
2023-12-01T14:45:15.757Z,73.84
2023-12-01T14:47:42.472Z,74.20
2023-12-01T14:50:09.286Z,74.05
2023-12-01T14:52:35.881Z,73.93
2023-12-01T14:55:02.445Z,73.09
2023-12-01T14:57:29.035Z,73.57
2023-12-01T14:59:55.667Z,73.97
2023-12-01T15:02:23.126Z,74.09
2023-12-01T15:04:49.815Z,75.12
2023-12-01T15:07:16.349Z,74.40
2023-12-01T15:09:42.793Z,73.85
2023-12-01T15:12:09.373Z,73.46
2023-12-01T15:14:35.878Z,73.85
2023-12-01T15:17:02.386Z,73.84
2023-12-01T15:19:33.200Z,73.73
2023-12-01T15:22:01.084Z,73.23
2023-12-01T15:24:27.721Z,73.49
2023-12-01T15:26:57.481Z,74.09
2023-12-01T15:29:24.744Z,73.62
2023-12-01T15:31:51.413Z,73.73
2023-12-01T15:34:18.011Z,73.96
2023-12-01T15:36:44.512Z,74.79
2023-12-01T15:39:12.400Z,75.23
2023-12-01T15:41:39.796Z,76.16
2023-12-01T15:44:06.400Z,75.25
2023-12-01T15:46:33.306Z,76.33
2023-12-01T15:48:59.956Z,75.80
2023-12-01T15:51:26.649Z,74.98
2023-12-01T15:53:53.257Z,76.82
2023-12-01T15:56:19.872Z,76.37
2023-12-01T15:58:46.404Z,75.63
2023-12-01T16:01:13.061Z,74.95
2023-12-01T16:03:39.949Z,74.53
2023-12-01T16:06:07.040Z,74.76
2023-12-01T16:08:33.572Z,75.25
2023-12-01T16:11:00.064Z,74.95
2023-12-01T16:13:26.564Z,75.77
2023-12-01T16:15:53.105Z,75.15
2023-12-01T16:18:21.506Z,74.48
2023-12-01T16:20:48.295Z,74.41
2023-12-01T16:23:14.911Z,75.24
2023-12-01T16:25:41.414Z,75.70
2023-12-01T16:28:09.334Z,76.30
2023-12-01T16:30:37.034Z,75.11
2023-12-01T16:33:04.041Z,74.55
2023-12-01T16:35:30.790Z,74.35
2023-12-01T16:37:57.777Z,74.63
2023-12-01T16:40:24.432Z,73.99
2023-12-01T16:42:51.079Z,73.99
2023-12-01T16:45:17.926Z,73.12
2023-12-01T16:47:45.337Z,73.68
2023-12-01T16:50:12.376Z,73.40
2023-12-01T16:52:38.887Z,73.67
2023-12-01T16:55:10.582Z,74.14
2023-12-01T16:57:37.606Z,73.89
2023-12-01T17:00:05.030Z,73.02
2023-12-01T17:02:31.593Z,73.70
2023-12-01T17:04:58.244Z,73.76
2023-12-01T17:07:24.744Z,73.54
2023-12-01T17:09:51.253Z,73.24
2023-12-01T17:12:17.785Z,72.54
2023-12-01T17:14:45.016Z,72.82
2023-12-01T17:17:12.678Z,73.88
2023-12-01T17:19:39.255Z,74.49
2023-12-01T17:22:05.740Z,75.16
2023-12-01T17:24:32.261Z,74.82
2023-12-01T17:26:58.780Z,74.53
2023-12-01T17:29:25.534Z,73.95
2023-12-01T17:31:52.204Z,73.38
2023-12-01T17:34:20.430Z,73.07
2023-12-01T17:36:46.913Z,72.81
2023-12-01T17:39:13.424Z,73.04
2023-12-01T17:41:39.930Z,72.39
2023-12-01T17:44:06.443Z,72.12
2023-12-01T17:46:33.016Z,72.77
2023-12-01T17:48:59.640Z,72.43
2023-12-01T17:51:26.198Z,72.16
2023-12-01T17:53:52.911Z,72.33
2023-12-01T17:56:21.666Z,71.72
2023-12-01T17:58:49.051Z,72.67
2023-12-01T18:01:15.533Z,72.82
2023-12-01T18:03:42.146Z,72.37
2023-12-01T18:06:14.245Z,72.28
2023-12-01T18:08:41.067Z,72.05
2023-12-01T18:11:08.031Z,71.34
2023-12-01T18:13:35.385Z,71.68
2023-12-01T18:16:02.167Z,72.77
2023-12-01T18:18:32.104Z,72.72
2023-12-01T18:21:01.388Z,73.16
2023-12-01T18:23:28.165Z,73.72
2023-12-01T18:25:54.657Z,72.64
2023-12-01T18:28:21.192Z,72.44
2023-12-01T18:30:47.921Z,72.13
2023-12-01T18:33:14.536Z,72.25
2023-12-01T18:35:41.275Z,71.94
2023-12-01T18:38:07.780Z,71.31
2023-12-01T18:40:34.239Z,72.19
2023-12-01T18:43:00.751Z,72.83
2023-12-01T18:45:27.402Z,72.41
2023-12-01T18:47:54.053Z,71.90
2023-12-01T18:50:20.577Z,71.96
2023-12-01T18:52:47.091Z,72.48
2023-12-01T18:55:14.445Z,73.28
2023-12-01T18:57:41.067Z,72.98
2023-12-01T19:00:09.324Z,72.87
2023-12-01T19:02:36.389Z,72.50
2023-12-01T19:05:03.640Z,73.76
2023-12-01T19:07:31.612Z,72.99
2023-12-01T19:09:58.102Z,74.04
2023-12-01T19:12:24.739Z,74.11
2023-12-01T19:14:52.293Z,73.68
2023-12-01T19:17:19.216Z,74.04
2023-12-01T19:19:46.345Z,74.37
2023-12-01T19:22:13.886Z,74.66
2023-12-01T19:24:40.398Z,74.18
2023-12-01T19:27:06.964Z,74.13
2023-12-01T19:29:35.530Z,73.99
2023-12-01T19:32:04.007Z,73.58
2023-12-01T19:34:30.740Z,73.29
2023-12-01T19:36:59.262Z,73.89
2023-12-01T19:39:27.389Z,73.32
2023-12-01T19:41:53.972Z,73.37
2023-12-01T19:44:20.588Z,73.47
2023-12-01T19:46:47.093Z,73.02
2023-12-01T19:49:13.742Z,75.17
2023-12-01T19:51:40.293Z,75.13
2023-12-01T19:54:06.805Z,74.62
2023-12-01T19:56:33.320Z,75.02
2023-12-01T19:58:59.814Z,74.91
2023-12-01T20:01:26.326Z,75.34
2023-12-01T20:03:52.816Z,74.79
2023-12-01T20:06:19.349Z,75.62
2023-12-01T20:08:45.921Z,75.17
2023-12-01T20:11:12.604Z,75.33
2023-12-01T20:13:39.094Z,74.69
2023-12-01T20:16:06.021Z,74.21
2023-12-01T20:18:32.614Z,74.29
2023-12-01T20:20:59.471Z,74.04
2023-12-01T20:23:25.962Z,74.29
2023-12-01T20:25:52.437Z,75.00
2023-12-01T20:28:18.952Z,75.51
2023-12-01T20:30:45.544Z,74.70
2023-12-01T20:33:12.128Z,74.61
2023-12-01T20:35:38.649Z,74.79
2023-12-01T20:38:05.375Z,75.27
2023-12-01T20:40:31.898Z,73.88
2023-12-01T20:42:58.364Z,75.32
2023-12-01T20:45:24.934Z,75.48
2023-12-01T20:47:51.554Z,75.67
2023-12-01T20:50:18.132Z,75.69
2023-12-01T20:52:47.121Z,77.20
2023-12-01T20:55:16.736Z,76.38
2023-12-01T20:57:43.325Z,76.87
2023-12-01T21:00:10.621Z,77.46
2023-12-01T21:02:37.162Z,77.93
2023-12-01T21:05:04.435Z,77.73
2023-12-01T21:07:30.991Z,77.47
2023-12-01T21:09:57.568Z,78.26
2023-12-01T21:12:24.087Z,78.13
2023-12-01T21:14:53.141Z,78.25
2023-12-01T21:17:22.105Z,77.91
2023-12-01T21:19:48.632Z,77.03
2023-12-01T21:22:15.111Z,76.28
2023-12-01T21:24:41.627Z,76.47
2023-12-01T21:27:08.132Z,76.81
2023-12-01T21:29:34.608Z,75.97
2023-12-01T21:32:01.081Z,76.14
2023-12-01T21:34:27.659Z,75.97
2023-12-01T21:36:54.178Z,77.04
2023-12-01T21:39:20.746Z,77.28
2023-12-01T21:41:49.250Z,76.78
2023-12-01T21:44:15.720Z,76.36
2023-12-01T21:46:42.199Z,75.79
2023-12-01T21:49:09.266Z,75.39
2023-12-01T21:51:35.908Z,74.87
2023-12-01T21:54:02.603Z,74.68
2023-12-01T21:56:29.092Z,74.97
2023-12-01T21:58:55.566Z,74.64
2023-12-01T22:01:22.145Z,74.82
2023-12-01T22:03:48.645Z,74.20
2023-12-01T22:06:15.135Z,74.40
2023-12-01T22:08:42.130Z,74.18
2023-12-01T22:11:08.778Z,73.94
2023-12-01T22:13:35.272Z,73.31
2023-12-01T22:16:02.307Z,73.33
2023-12-01T22:18:28.975Z,73.20
2023-12-01T22:20:55.635Z,73.72
2023-12-01T22:23:22.183Z,73.50
2023-12-01T22:25:48.671Z,72.55
2023-12-01T22:28:15.601Z,73.30
2023-12-01T22:30:42.121Z,73.19
2023-12-01T22:33:08.668Z,73.35
2023-12-01T22:35:35.163Z,73.20
2023-12-01T22:38:01.618Z,72.43
2023-12-01T22:40:28.190Z,72.68
2023-12-01T22:42:54.646Z,72.67
2023-12-01T22:45:21.176Z,72.22
2023-12-01T22:47:47.746Z,71.91
2023-12-01T22:50:14.288Z,72.04
2023-12-01T22:52:40.758Z,71.95
2023-12-01T22:55:07.617Z,71.71
2023-12-01T22:57:34.198Z,71.23
2023-12-01T23:00:00.828Z,71.91
2023-12-01T23:02:27.461Z,71.85
2023-12-01T23:04:54.193Z,71.19
2023-12-01T23:07:20.788Z,71.53
2023-12-01T23:09:47.375Z,71.17
2023-12-01T23:12:13.897Z,71.38
2023-12-01T23:14:40.430Z,72.00
2023-12-01T23:17:06.905Z,71.64
2023-12-01T23:19:33.593Z,72.07
2023-12-01T23:22:00.252Z,72.03
2023-12-01T23:24:26.786Z,71.87
2023-12-01T23:26:53.309Z,72.59
2023-12-01T23:29:19.858Z,72.21
2023-12-01T23:31:46.457Z,72.25
2023-12-01T23:34:13.043Z,72.44
2023-12-01T23:36:39.572Z,73.24
2023-12-01T23:39:06.498Z,73.43
2023-12-01T23:41:32.962Z,73.12
2023-12-01T23:43:59.498Z,72.48
2023-12-01T23:46:26.017Z,72.24
2023-12-01T23:48:52.706Z,72.99
2023-12-01T23:51:19.439Z,73.22
2023-12-01T23:53:45.944Z,73.24
2023-12-01T23:56:12.787Z,73.14
2023-12-01T23:58:39.305Z,72.50
